Flight Track Log - Related Links

Times and Time Zones

All times are in EDT time to prevent confusion due to time zone crossing. See the SWA1635 flight status page for this flight to view local times or setup timezone preferences in your user account.

Time Position Orientation Groundspeed Altitude Reporting Facility
EDT Latitude Longitude Course Direction KTS MPH feet Rate Location/Type
Mon 02:58:58 PM 33.8275 -118.5786 321° Northwest 344 396 13,000  Level Los Angeles Center
Mon 03:00:00 PM 33.8397 -118.6992 277° West 337 388 13,000  Level Los Angeles Center
Mon 03:01:02 PM 33.8483 -118.7986 276° West 328 377 13,000 1,662 Level Los Angeles Center
Mon 03:03:00 PM 33.9992 -118.9261 325° Northwest  Level Estimated
Mon 03:04:00 PM 34.3742 -118.8308 321° Northwest  Level Estimated
Mon 03:04:20 PM 34.0192 -119.0983 325° Northwest 362 417 20,200  Level Los Angeles Center
Mon 03:05:23 PM 34.1006 -119.2108 311° West 372 428 23,000 2,277 Climbing Los Angeles Center
Mon 03:06:37 PM 34.1672 -119.3033 311° West 368 423 25,400 1,809 Climbing Los Angeles Center
Mon 03:07:39 PM 34.2514 -119.4189 311° West 379 436 27,100 1,839 Climbing Los Angeles Center
Mon 03:08:41 PM 34.3214 -119.5161 311° West 385 443 29,200 2,323 Climbing Los Angeles Center
Mon 03:09:43 PM 34.4033 -119.6269 312° West 368 423 31,900 1,613 Climbing Los Angeles Center
Mon 03:10:00 PM 34.5350 -119.3837 325° Northwest  Level Estimated
Mon 03:11:47 PM 34.5422 -119.8008 314° West 368 423 34,200  Level Los Angeles Center
Mon 03:12:49 PM 34.6408 -119.8786 327° Northwest 391 450 35,200 871 Climbing Los Angeles Center
Mon 03:13:51 PM 34.7311 -119.9536 326° Northwest 391 450 36,000 259 Climbing Los Angeles Center
Mon 03:15:54 PM 34.8950 -120.0908 326° Northwest 397 457 36,000  Level Los Angeles Center
Mon 03:16:57 PM 35.0172 -120.1908 326° Northwest 403 464 36,000  Level Los Angeles Center
Mon 03:19:01 PM 35.2017 -120.3458 326° Northwest 406 467 36,000  Level Los Angeles Center
Mon 03:20:03 PM 35.2939 -120.4233 326° Northwest 405 466 36,000  Level Los Angeles Center
Mon 03:21:05 PM 35.3869 -120.5033 325° Northwest 410 472 36,000  Level Los Angeles Center
Mon 03:22:07 PM 35.5003 -120.5994 325° Northwest 414 476 36,000  Level Los Angeles Center
Mon 03:23:21 PM 35.6122 -120.6947 325° Northwest 410 472 36,000  Level Oakland Center
Mon 03:24:22 PM 35.7069 -120.7756 325° Northwest 413 475 36,000 -341 Level Oakland Center
Mon 03:25:24 PM 35.8017 -120.8553 326° Northwest 413 475 35,300 -1,749 Descending Oakland Center
Mon 03:27:17 PM 35.9711 -121.0019 325° Northwest 414 476 30,900 -2,267 Descending Los Angeles Center
Mon 03:29:09 PM 36.1667 -121.1667 326° Northwest 388 447 26,800 -2,163 Descending Northern Cal TRACON
Mon 03:30:09 PM 36.2500 -121.2500 321° Northwest 384 442 24,700 -1,912 Descending Northern Cal TRACON
Mon 03:32:00 PM 36.4017 -121.3729 325° Northwest  Level FlightAware Approximate
Mon 03:32:33 PM 36.4494 -121.4131 325° Northwest 372 428 20,300  Level Oakland Center
Mon 03:33:35 PM 36.5383 -121.4733 331° Northwest 364 419 17,700 -2,293 Descending Oakland Center
Mon 03:34:36 PM 36.6281 -121.5300 333° Northwest 363 418 15,600 -2,026 Descending Oakland Center
Mon 03:36:09 PM 36.7667 -121.6167 333° Northwest 333 383 12,500 -1,746 Descending Northern Cal TRACON
Mon 03:38:09 PM 36.9167 -121.7333 328° Northwest 299 344 9,400 -1,539 Descending Northern Cal TRACON
Mon 03:38:41 PM 36.9475 -121.7481 339° North 302 348 8,600 -1,316 Descending Oakland Center
Mon 03:40:44 PM 37.1067 -121.8578 331° Northwest 295 339 6,000 -1,011 Descending Oakland Center
Mon 03:41:45 PM 37.1772 -121.9039 332° Northwest 288 331 5,500 -780 Descending Oakland Center
Mon 03:42:47 PM 37.2467 -121.9461 334° Northwest 282 325 4,400 -919 Descending Oakland Center
Mon 03:46:00 PM 37.3500 -121.9167 North  Level FlightAware Approximate
Mon 03:46:52 PM 37.3928 -121.9633 North 176 203 800  Level Oakland Center
Mon 03:47:15 PM 37.3833 -121.9500 132° Southeast 134 154 400 -689 Descending Northern Cal TRACON
Mon 03:47:53 PM 37.3650 -121.9319 142° Southeast 149 171 100 -474 Descending Oakland Center
Mon 03:49:00 PM 37.3627 -121.9291 North  Level Estimated
Mon 03:56:00 PM 37.3627 -121.9291 North  Level Estimated

Login

Don't have an account? Register now (free) for customized features, flight alerts, and more!